KRUG

Rugby Municipal Airport

Rugby, North Dakota, USA
METAR KRUG 170035Z AUTO 33007KT 10SM CLR M00/M04 A3019 RMK AO2
Observed Flight Rules
Oct-17 @ 00:35 UTC (20 minutes ago) Visual Flight Rules
Wind Visibility Clouds
330° at 7 knots 10 miles
  • Clear skies
Temperatures Readings
Current 0°C / 32°F
Dewpoint -4°C / 25°F
Humidity 75%
Altimeter 30.19" Hg
Pressure 1022 hPa
Elevation 472
METAR KRUG 170035Z AUTO 33007KT 10SM CLR M00/M04 A3019 RMK AO2
Observed Flight Rules
Oct-17 @ 00:35 UTC
(20 minutes ago)
VFR
Wind Visibility
330° at 7 knots 10 miles
Clouds
  • Clear skies
Temperature Dewpoint
0°C / 32°F -4°C / 25°F
Humidity Altimeter Pressure
75% 30.19" Hg 1022 hPa